Aeroparque Buenos Aires, Argentina
Current Conditions -  °F | °C
As of 9:00 AM on Friday 21 Nov 2014 (Local Time) from SABE Reporting Station
Broken Clouds Broken Clouds  
Wind Chill: 20°   Ceiling: 10000
Heat Index: 20°   Visibility: 6mi
Dew Point: 15°   Wind: 9mph
Humidity: 73%   Direction: 90°E
Pressure: 30.03"   Gusts: NA
Location:  34.58°S, 58.43°W
Report Text: SABE 211200Z 09008KT 9999 FEW015 SCT030BKN100 20/15 Q1017
Loading
Personal Weather Stations






























Interactive Weather Map New forecast layout! Learn more

10-Day Weather Forecast

Advertisements
Track Severe Weather on mobile